createdAt,value
2023-04-27T00:00:01.326Z,2.10
2023-04-27T00:02:29.550Z,2.10
2023-04-27T00:04:59.291Z,2.10
2023-04-27T00:07:27.582Z,2.10
2023-04-27T00:09:55.853Z,2.00
2023-04-27T00:12:24.325Z,2.00
2023-04-27T00:14:52.595Z,2.00
2023-04-27T00:17:20.748Z,2.00
2023-04-27T00:19:48.809Z,2.00
2023-04-27T00:22:18.251Z,1.90
2023-04-27T00:24:46.249Z,2.00
2023-04-27T00:27:14.242Z,1.90
2023-04-27T00:29:43.063Z,1.90
2023-04-27T00:32:11.283Z,1.90
2023-04-27T00:34:39.694Z,1.90
2023-04-27T00:37:07.838Z,1.90
2023-04-27T00:39:37.322Z,1.80
2023-04-27T00:42:06.051Z,1.80
2023-04-27T00:44:34.287Z,1.80
2023-04-27T00:47:03.540Z,1.70
2023-04-27T00:49:32.056Z,1.70
2023-04-27T00:52:01.141Z,1.60
2023-04-27T00:54:29.280Z,1.60
2023-04-27T00:56:59.514Z,1.60
2023-04-27T00:59:27.675Z,1.60
2023-04-27T01:01:57.065Z,1.50
2023-04-27T01:04:25.332Z,1.50
2023-04-27T01:06:53.642Z,1.50
2023-04-27T01:09:21.969Z,1.50
2023-04-27T01:11:51.326Z,1.50
2023-04-27T01:14:21.154Z,1.50
2023-04-27T01:16:49.958Z,1.40
2023-04-27T01:19:18.045Z,1.40
2023-04-27T01:21:46.530Z,1.40
2023-04-27T01:24:16.740Z,1.30
2023-04-27T01:26:44.755Z,1.30
2023-04-27T01:29:13.286Z,1.20
2023-04-27T01:31:42.835Z,1.10
2023-04-27T01:34:10.940Z,1.10
2023-04-27T01:36:38.936Z,1.00
2023-04-27T01:39:09.368Z,1.00
2023-04-27T01:41:38.880Z,1.00
2023-04-27T01:44:07.012Z,1.00
2023-04-27T01:46:35.364Z,1.00
2023-04-27T01:49:03.689Z,1.00
2023-04-27T01:51:32.872Z,1.00
2023-04-27T01:54:01.087Z,1.00
2023-04-27T01:56:29.159Z,1.00
2023-04-27T01:58:58.742Z,1.00
2023-04-27T02:01:27.035Z,1.00
2023-04-27T02:03:55.346Z,1.00
2023-04-27T02:06:23.512Z,1.00
2023-04-27T02:08:51.675Z,1.00
2023-04-27T02:11:19.820Z,1.00
2023-04-27T02:13:48.896Z,1.00
2023-04-27T02:16:18.439Z,1.00
2023-04-27T02:18:46.941Z,0.90
2023-04-27T02:21:14.944Z,0.90
2023-04-27T02:23:42.920Z,0.90
2023-04-27T02:26:18.050Z,0.90
2023-04-27T02:28:46.361Z,1.00
2023-04-27T02:31:16.707Z,0.90
2023-04-27T02:33:46.150Z,0.90
2023-04-27T02:36:14.201Z,0.90
2023-04-27T02:38:42.248Z,0.90
2023-04-27T02:41:11.506Z,0.80
2023-04-27T02:43:39.567Z,0.80
2023-04-27T02:46:08.433Z,0.80
2023-04-27T02:48:36.484Z,0.70
2023-04-27T02:51:08.001Z,0.80
2023-04-27T02:53:36.368Z,0.80
2023-04-27T02:56:04.638Z,0.80
2023-04-27T02:58:32.729Z,0.80
2023-04-27T03:01:01.094Z,0.80
2023-04-27T03:03:29.386Z,0.80
2023-04-27T03:05:57.456Z,0.80
2023-04-27T03:08:27.202Z,0.80
2023-04-27T03:10:55.283Z,0.90
2023-04-27T03:13:23.358Z,0.90
2023-04-27T03:15:51.450Z,0.90
2023-04-27T03:18:21.225Z,0.90
2023-04-27T03:20:49.440Z,0.90
2023-04-27T03:23:17.517Z,1.00
2023-04-27T03:25:48.796Z,0.90
2023-04-27T03:28:16.928Z,0.90
2023-04-27T03:30:45.011Z,0.90
2023-04-27T03:33:13.162Z,0.80
2023-04-27T03:35:41.196Z,0.80
2023-04-27T03:38:09.290Z,0.80
2023-04-27T03:40:37.257Z,0.80
2023-04-27T03:43:06.935Z,0.80
2023-04-27T03:45:35.173Z,0.90
2023-04-27T03:48:03.289Z,0.90
2023-04-27T03:50:31.400Z,0.80
2023-04-27T03:52:59.386Z,0.80
2023-04-27T03:55:27.560Z,0.80
2023-04-27T03:57:55.776Z,0.80
2023-04-27T04:00:25.871Z,0.80
2023-04-27T04:02:54.878Z,0.90
2023-04-27T04:05:23.816Z,0.90
2023-04-27T04:07:51.968Z,1.00
2023-04-27T04:10:20.245Z,1.00
2023-04-27T04:12:49.723Z,1.10
2023-04-27T04:15:18.765Z,1.20
2023-04-27T04:17:49.339Z,1.30
2023-04-27T04:20:18.312Z,1.40
2023-04-27T04:22:46.417Z,1.50
2023-04-27T04:25:14.507Z,1.60
2023-04-27T04:27:43.045Z,1.60
2023-04-27T04:30:12.759Z,1.70
2023-04-27T04:32:41.590Z,1.70
2023-04-27T04:35:12.783Z,1.80
2023-04-27T04:37:41.117Z,1.90
2023-04-27T04:40:10.910Z,2.00
2023-04-27T04:42:40.205Z,2.10
2023-04-27T04:45:11.127Z,2.20
2023-04-27T04:47:39.670Z,2.40
2023-04-27T04:50:13.163Z,2.60
2023-04-27T04:52:41.344Z,2.70
2023-04-27T04:55:10.478Z,2.90
2023-04-27T04:57:38.856Z,3.10
2023-04-27T05:00:11.457Z,3.20
2023-04-27T05:02:40.123Z,3.30
2023-04-27T05:05:09.250Z,3.40
2023-04-27T05:07:38.647Z,3.50
2023-04-27T05:10:07.531Z,3.60
2023-04-27T05:12:35.699Z,3.60
2023-04-27T05:15:04.074Z,3.70
2023-04-27T05:17:32.140Z,3.80
2023-04-27T05:20:00.924Z,3.90
2023-04-27T05:22:29.014Z,4.00
2023-04-27T05:24:59.154Z,4.10
2023-04-27T05:27:27.721Z,4.20
2023-04-27T05:30:30.852Z,4.20
2023-04-27T05:32:58.888Z,4.40
2023-04-27T05:35:26.969Z,4.40
2023-04-27T05:37:54.998Z,4.50
2023-04-27T05:40:24.702Z,4.60
2023-04-27T05:42:52.972Z,4.70
2023-04-27T05:45:21.075Z,4.80
2023-04-27T05:47:49.167Z,4.90
2023-04-27T05:50:17.262Z,4.90
2023-04-27T05:52:45.260Z,5.00
2023-04-27T05:55:13.524Z,5.10
2023-04-27T05:57:42.954Z,5.20
2023-04-27T06:00:12.719Z,5.40
2023-04-27T06:02:41.182Z,5.50
2023-04-27T06:05:10.194Z,5.60
2023-04-27T06:07:38.450Z,5.70
2023-04-27T06:10:07.699Z,5.70
2023-04-27T06:12:35.796Z,5.90
2023-04-27T06:15:08.526Z,5.90
2023-04-27T06:17:36.693Z,6.00
2023-04-27T06:20:06.845Z,6.10
2023-04-27T06:22:35.098Z,6.20
2023-04-27T06:25:03.380Z,6.40
2023-04-27T06:27:31.818Z,6.50
2023-04-27T06:29:59.941Z,6.70
2023-04-27T06:32:29.440Z,6.80
2023-04-27T06:34:57.688Z,6.90
2023-04-27T06:37:26.385Z,7.00
2023-04-27T06:39:54.608Z,7.00
2023-04-27T06:42:22.609Z,7.30
2023-04-27T06:44:50.604Z,7.50
2023-04-27T06:47:18.602Z,7.60
2023-04-27T06:49:49.625Z,7.70
2023-04-27T06:52:18.177Z,7.90
2023-04-27T06:54:46.440Z,8.00
2023-04-27T06:57:14.460Z,8.10
2023-04-27T06:59:42.483Z,8.30
2023-04-27T07:02:10.806Z,8.50
2023-04-27T07:04:38.990Z,8.60
2023-04-27T07:07:08.562Z,8.60
2023-04-27T07:09:37.481Z,8.60
2023-04-27T07:12:05.734Z,8.70
2023-04-27T07:14:34.572Z,9.00
2023-04-27T07:17:02.591Z,9.00
2023-04-27T07:19:30.604Z,9.00
2023-04-27T07:21:58.696Z,9.10
2023-04-27T07:24:28.070Z,9.30
2023-04-27T07:26:57.743Z,9.40
2023-04-27T07:29:28.310Z,9.50
2023-04-27T07:31:56.834Z,9.60
2023-04-27T07:34:25.044Z,10.00
2023-04-27T07:36:55.023Z,10.30
2023-04-27T07:39:23.978Z,10.40
2023-04-27T07:41:53.525Z,10.60
2023-04-27T07:44:21.919Z,10.70
2023-04-27T07:46:50.183Z,11.00
2023-04-27T07:49:18.470Z,11.50
2023-04-27T07:51:46.602Z,11.80
2023-04-27T07:54:14.995Z,12.20
2023-04-27T07:56:44.052Z,12.70
2023-04-27T07:59:14.914Z,12.90
2023-04-27T08:01:43.367Z,13.10
2023-04-27T08:04:12.589Z,13.10
2023-04-27T08:06:41.343Z,12.80
2023-04-27T08:09:10.273Z,12.50
2023-04-27T08:11:38.388Z,11.40
2023-04-27T08:14:09.013Z,11.40
2023-04-27T08:16:38.788Z,11.20
2023-04-27T08:19:07.107Z,10.90
2023-04-27T08:21:35.217Z,10.40
2023-04-27T08:24:03.729Z,10.30
2023-04-27T08:26:31.866Z,10.10
2023-04-27T08:29:00.116Z,10.50
2023-04-27T08:31:28.291Z,11.10
2023-04-27T08:33:58.816Z,11.50
2023-04-27T08:36:28.753Z,12.30
2023-04-27T08:38:56.809Z,12.50
2023-04-27T08:41:25.631Z,13.00
2023-04-27T08:43:54.003Z,13.20
2023-04-27T08:46:22.824Z,13.20
2023-04-27T08:48:52.199Z,13.00
2023-04-27T08:51:22.690Z,12.50
2023-04-27T08:53:52.807Z,12.10
2023-04-27T08:56:23.426Z,11.70
2023-04-27T08:58:51.456Z,11.70
2023-04-27T09:01:19.873Z,11.50
2023-04-27T09:03:48.794Z,11.40
2023-04-27T09:06:17.572Z,11.30
2023-04-27T09:08:48.590Z,11.10
2023-04-27T09:11:17.761Z,11.20
2023-04-27T09:13:46.261Z,11.20
2023-04-27T09:16:15.287Z,11.20
2023-04-27T09:18:45.134Z,11.60
2023-04-27T09:21:23.710Z,11.90
2023-04-27T09:23:53.716Z,12.30
2023-04-27T09:26:23.027Z,12.00
2023-04-27T09:28:53.030Z,12.20
2023-04-27T09:31:21.462Z,13.20
2023-04-27T09:33:57.893Z,13.70
2023-04-27T09:36:26.754Z,14.30
2023-04-27T09:38:56.110Z,14.30
2023-04-27T09:41:24.303Z,14.10
2023-04-27T09:43:55.184Z,13.70
2023-04-27T09:46:25.191Z,12.90
2023-04-27T09:48:53.749Z,12.10
2023-04-27T09:51:23.037Z,11.70
2023-04-27T09:53:53.978Z,11.30
2023-04-27T09:56:33.480Z,11.10
2023-04-27T09:59:15.252Z,10.80
2023-04-27T10:01:47.971Z,10.70
2023-04-27T10:04:35.483Z,10.60
2023-04-27T10:07:04.852Z,10.60
2023-04-27T10:09:37.659Z,10.60
2023-04-27T10:12:18.226Z,10.70
2023-04-27T10:14:54.548Z,10.80
2023-04-27T10:17:27.627Z,11.00
2023-04-27T10:20:00.475Z,11.40
2023-04-27T10:22:41.725Z,11.80
2023-04-27T10:25:18.880Z,12.00
2023-04-27T10:27:53.067Z,12.60
2023-04-27T10:30:22.946Z,13.40
2023-04-27T10:32:53.418Z,13.60
2023-04-27T10:35:22.512Z,13.20
2023-04-27T10:37:52.083Z,12.40
2023-04-27T10:40:20.159Z,12.00
2023-04-27T10:42:49.650Z,11.50
2023-04-27T10:45:31.459Z,11.10
2023-04-27T10:48:01.915Z,10.60
2023-04-27T10:50:31.425Z,10.40
2023-04-27T10:53:02.765Z,10.30
2023-04-27T10:55:31.847Z,10.20
2023-04-27T10:58:00.283Z,10.20
2023-04-27T11:00:33.632Z,10.30
2023-04-27T11:03:13.320Z,10.40
2023-04-27T11:05:43.265Z,10.50
2023-04-27T11:08:13.968Z,10.60
2023-04-27T11:10:44.883Z,10.60
2023-04-27T11:13:14.241Z,10.70
2023-04-27T11:15:48.869Z,11.00
2023-04-27T11:18:18.013Z,11.20
2023-04-27T11:20:48.107Z,11.60
2023-04-27T11:23:25.219Z,11.80
2023-04-27T11:25:53.517Z,12.10
2023-04-27T11:28:22.085Z,12.20
2023-04-27T11:30:58.618Z,12.10
2023-04-27T11:33:27.014Z,12.10
2023-04-27T11:35:56.427Z,12.20
2023-04-27T11:38:24.644Z,12.30
2023-04-27T11:41:01.325Z,12.20
2023-04-27T11:43:29.665Z,12.00
2023-04-27T11:45:59.582Z,11.90
2023-04-27T11:48:29.421Z,11.80
2023-04-27T11:51:01.258Z,12.10
2023-04-27T11:53:34.088Z,12.10
2023-04-27T11:56:05.340Z,12.10
2023-04-27T11:58:36.021Z,11.90
2023-04-27T12:01:12.186Z,11.60
2023-04-27T12:03:41.324Z,11.20
2023-04-27T12:06:27.494Z,11.20
2023-04-27T12:08:58.216Z,10.90
2023-04-27T12:11:27.972Z,10.80
2023-04-27T12:13:58.773Z,10.80
2023-04-27T12:16:28.904Z,10.70
2023-04-27T12:18:56.957Z,10.60
2023-04-27T12:21:25.002Z,10.80
2023-04-27T12:23:53.013Z,10.70
2023-04-27T12:26:21.527Z,10.70
2023-04-27T12:28:49.637Z,10.80
2023-04-27T12:31:18.815Z,11.00
2023-04-27T12:33:49.200Z,11.20
2023-04-27T12:36:17.357Z,11.50
2023-04-27T12:38:45.389Z,11.90
2023-04-27T12:41:13.355Z,12.60
2023-04-27T12:43:42.719Z,13.20
2023-04-27T12:46:11.514Z,13.20
2023-04-27T12:48:39.603Z,12.80
2023-04-27T12:51:09.020Z,12.70
2023-04-27T12:53:36.989Z,12.20
2023-04-27T12:56:05.445Z,11.80
2023-04-27T12:58:33.506Z,11.80
2023-04-27T13:01:01.897Z,11.80
2023-04-27T13:03:30.116Z,11.60
2023-04-27T13:05:58.355Z,11.40
2023-04-27T13:08:27.822Z,11.30
2023-04-27T13:10:55.889Z,11.30
2023-04-27T13:13:23.900Z,11.30
2023-04-27T13:15:51.925Z,11.30
2023-04-27T13:18:20.374Z,11.50
2023-04-27T13:20:49.212Z,11.50
2023-04-27T13:23:17.348Z,11.60
2023-04-27T13:25:46.754Z,11.60
2023-04-27T13:28:14.978Z,11.60
2023-04-27T13:30:43.049Z,11.60
2023-04-27T13:33:22.525Z,11.70
2023-04-27T13:35:52.086Z,11.80
2023-04-27T13:38:20.286Z,11.70
2023-04-27T13:40:49.844Z,11.80
2023-04-27T13:43:17.983Z,11.80
2023-04-27T13:45:46.356Z,11.80
2023-04-27T13:48:14.476Z,11.60
2023-04-27T13:50:42.583Z,11.60
2023-04-27T13:53:11.843Z,11.50
2023-04-27T13:55:39.962Z,11.50
2023-04-27T13:58:10.869Z,11.60
2023-04-27T14:00:39.054Z,11.60
2023-04-27T14:03:09.020Z,11.50
2023-04-27T14:05:37.169Z,11.50
2023-04-27T14:08:05.641Z,11.40
2023-04-27T14:10:33.709Z,11.50
2023-04-27T14:13:01.678Z,11.60
2023-04-27T14:15:31.331Z,11.70
2023-04-27T14:17:59.373Z,11.70
2023-04-27T14:20:28.375Z,11.60
2023-04-27T14:22:58.384Z,11.80
2023-04-27T14:25:27.342Z,12.00
2023-04-27T14:27:55.506Z,12.30
2023-04-27T14:30:23.662Z,12.40
2023-04-27T14:32:53.458Z,12.30
2023-04-27T14:35:23.650Z,12.20
2023-04-27T14:37:52.076Z,12.00
2023-04-27T14:40:20.777Z,11.60
2023-04-27T14:42:50.834Z,11.40
2023-04-27T14:45:19.024Z,11.30
2023-04-27T14:47:47.075Z,11.20
2023-04-27T14:50:16.469Z,10.90
2023-04-27T14:52:44.571Z,10.70
2023-04-27T14:55:13.639Z,10.70
2023-04-27T14:57:41.715Z,10.60
2023-04-27T15:00:11.107Z,10.50
2023-04-27T15:02:39.580Z,10.30
2023-04-27T15:05:08.045Z,10.30
2023-04-27T15:07:37.513Z,10.20
2023-04-27T15:10:06.368Z,10.10
2023-04-27T15:12:34.494Z,10.10
2023-04-27T15:15:02.492Z,10.00
2023-04-27T15:17:30.632Z,10.00
2023-04-27T15:19:58.654Z,10.00
2023-04-27T15:22:27.770Z,10.00
2023-04-27T15:24:57.275Z,9.90
2023-04-27T15:27:27.197Z,10.00
2023-04-27T15:29:57.601Z,10.00
2023-04-27T15:32:30.580Z,10.00
2023-04-27T15:34:59.582Z,10.00
2023-04-27T15:37:28.835Z,10.10
2023-04-27T15:39:58.627Z,10.20
2023-04-27T15:42:27.042Z,10.30
2023-04-27T15:44:55.164Z,10.30
2023-04-27T15:47:23.124Z,10.30
2023-04-27T15:49:57.445Z,10.30
2023-04-27T15:52:26.902Z,10.20
2023-04-27T15:54:55.658Z,10.20
2023-04-27T15:57:25.139Z,10.10
2023-04-27T15:59:53.154Z,10.00
2023-04-27T16:02:21.513Z,10.20
2023-04-27T16:04:50.110Z,10.20
2023-04-27T16:07:18.082Z,10.20
2023-04-27T16:09:46.185Z,10.30
2023-04-27T16:12:14.227Z,10.30
2023-04-27T16:14:43.669Z,10.30
2023-04-27T16:17:11.748Z,10.30
2023-04-27T16:19:39.758Z,10.40
2023-04-27T16:22:08.100Z,10.50
2023-04-27T16:24:36.289Z,10.30
2023-04-27T16:27:04.665Z,10.30
2023-04-27T16:29:32.796Z,10.20
2023-04-27T16:32:02.516Z,10.10
2023-04-27T16:34:30.778Z,9.90
2023-04-27T16:36:58.824Z,9.90
2023-04-27T16:39:27.106Z,9.70
2023-04-27T16:41:55.264Z,9.60
2023-04-27T16:44:24.499Z,9.50
2023-04-27T16:46:52.549Z,9.40
2023-04-27T16:49:21.887Z,9.40
2023-04-27T16:51:49.926Z,9.30
2023-04-27T16:54:18.034Z,9.20
2023-04-27T16:56:48.055Z,9.30
2023-04-27T16:59:17.214Z,9.30
2023-04-27T17:01:45.421Z,9.20
2023-04-27T17:04:13.825Z,9.30
2023-04-27T17:06:47.099Z,9.30
2023-04-27T17:09:15.512Z,9.20
2023-04-27T17:11:43.851Z,9.30
2023-04-27T17:14:11.875Z,9.20
2023-04-27T17:16:39.938Z,9.20
2023-04-27T17:19:08.133Z,9.10
2023-04-27T17:21:36.142Z,9.10
2023-04-27T17:24:06.509Z,9.00
2023-04-27T17:26:34.768Z,8.90
2023-04-27T17:29:02.947Z,8.80
2023-04-27T17:31:31.131Z,8.70
2023-04-27T17:33:59.299Z,8.70
2023-04-27T17:36:27.834Z,8.60
2023-04-27T17:38:55.967Z,8.50
2023-04-27T17:41:27.175Z,8.40
2023-04-27T17:43:55.221Z,8.30
2023-04-27T17:46:23.258Z,8.20
2023-04-27T17:48:51.534Z,8.20
2023-04-27T17:51:19.545Z,8.10
2023-04-27T17:53:47.603Z,8.00
2023-04-27T17:56:18.368Z,7.90
2023-04-27T17:58:47.763Z,7.90
2023-04-27T18:01:15.820Z,7.70
2023-04-27T18:03:43.881Z,7.70
2023-04-27T18:06:12.159Z,7.70
2023-04-27T18:08:40.247Z,7.60
2023-04-27T18:11:08.516Z,7.60
2023-04-27T18:13:36.660Z,7.60
2023-04-27T18:16:06.566Z,7.60
2023-04-27T18:18:34.590Z,7.50
2023-04-27T18:21:02.967Z,7.50
2023-04-27T18:23:31.203Z,7.50
2023-04-27T18:26:00.042Z,7.50
2023-04-27T18:28:28.103Z,7.50
2023-04-27T18:30:56.212Z,7.40
2023-04-27T18:33:25.865Z,7.40
2023-04-27T18:35:53.926Z,7.30
2023-04-27T18:38:22.012Z,7.30
2023-04-27T18:40:50.000Z,7.20
2023-04-27T18:43:18.067Z,7.10
2023-04-27T18:45:46.021Z,7.00
2023-04-27T18:48:13.962Z,7.00
2023-04-27T18:50:43.337Z,6.90
2023-04-27T18:53:11.297Z,6.90
2023-04-27T18:55:40.567Z,6.80
2023-04-27T18:58:08.715Z,6.80
2023-04-27T19:00:38.631Z,6.70
2023-04-27T19:03:07.136Z,6.60
2023-04-27T19:05:36.345Z,6.60
2023-04-27T19:08:05.900Z,6.50
2023-04-27T19:10:33.830Z,6.40
2023-04-27T19:13:01.895Z,6.30
2023-04-27T19:15:30.057Z,6.20
2023-04-27T19:18:07.087Z,6.10
2023-04-27T19:20:38.740Z,6.10
2023-04-27T19:23:09.309Z,6.00
2023-04-27T19:25:37.759Z,5.90
2023-04-27T19:28:06.165Z,5.90
2023-04-27T19:30:34.260Z,5.80
2023-04-27T19:33:02.513Z,5.70
2023-04-27T19:35:30.637Z,5.70
2023-04-27T19:37:58.674Z,5.70
2023-04-27T19:40:28.030Z,5.60
2023-04-27T19:42:56.027Z,5.50
2023-04-27T19:45:23.994Z,5.40
2023-04-27T19:47:54.026Z,5.30
2023-04-27T19:50:22.453Z,5.30
2023-04-27T19:52:50.456Z,5.20
2023-04-27T19:55:18.796Z,5.10
2023-04-27T19:57:52.284Z,5.10
2023-04-27T20:00:20.552Z,5.10
2023-04-27T20:02:48.640Z,5.00
2023-04-27T20:05:16.934Z,4.90
2023-04-27T20:07:45.271Z,4.90
2023-04-27T20:10:13.312Z,4.80
2023-04-27T20:12:55.192Z,4.70
2023-04-27T20:15:26.140Z,4.70
2023-04-27T20:17:54.537Z,4.60
2023-04-27T20:20:22.816Z,4.60
2023-04-27T20:22:51.288Z,4.60
2023-04-27T20:25:19.620Z,4.60
2023-04-27T20:27:47.685Z,4.60
2023-04-27T20:30:16.018Z,4.50
2023-04-27T20:32:46.439Z,4.50
2023-04-27T20:35:14.813Z,4.40
2023-04-27T20:37:43.492Z,4.40
2023-04-27T20:40:14.236Z,4.30
2023-04-27T20:42:43.493Z,4.30
2023-04-27T20:45:12.295Z,4.30
2023-04-27T20:47:40.388Z,4.30
2023-04-27T20:50:10.340Z,4.30
2023-04-27T20:52:38.350Z,4.30
2023-04-27T20:55:07.064Z,4.30
2023-04-27T20:57:35.234Z,4.30
2023-04-27T21:00:03.896Z,4.40
2023-04-27T21:02:31.884Z,4.30
2023-04-27T21:04:59.961Z,4.40
2023-04-27T21:07:29.420Z,4.40
2023-04-27T21:09:57.422Z,4.30
2023-04-27T21:12:25.401Z,4.30
2023-04-27T21:14:53.357Z,4.30
2023-04-27T21:17:21.596Z,4.20
2023-04-27T21:19:49.519Z,4.10
2023-04-27T21:22:17.429Z,4.00
2023-04-27T21:24:47.493Z,4.00
2023-04-27T21:27:15.535Z,4.00
2023-04-27T21:29:43.499Z,3.90
2023-04-27T21:32:11.498Z,3.90
2023-04-27T21:34:39.663Z,3.90
2023-04-27T21:37:08.812Z,3.90
2023-04-27T21:39:36.917Z,3.90
2023-04-27T21:42:06.392Z,3.90
2023-04-27T21:44:34.397Z,3.90
2023-04-27T21:47:02.395Z,3.80
2023-04-27T21:49:30.431Z,3.70
2023-04-27T21:51:58.480Z,3.60
2023-04-27T21:54:26.482Z,3.60
2023-04-27T21:56:54.469Z,3.50
2023-04-27T21:59:23.818Z,3.50
2023-04-27T22:01:52.217Z,3.50
2023-04-27T22:04:20.921Z,3.40
2023-04-27T22:06:49.424Z,3.40
2023-04-27T22:09:17.568Z,3.30
2023-04-27T22:11:46.516Z,3.30
2023-04-27T22:14:14.805Z,3.30
2023-04-27T22:16:44.353Z,3.30
2023-04-27T22:19:12.618Z,3.40
2023-04-27T22:21:40.587Z,3.40
2023-04-27T22:24:08.922Z,3.40
2023-04-27T22:26:36.914Z,3.30
2023-04-27T22:29:04.978Z,3.30
2023-04-27T22:31:33.233Z,3.30
2023-04-27T22:34:03.413Z,3.30
2023-04-27T22:36:31.667Z,3.30
2023-04-27T22:38:59.875Z,3.30
2023-04-27T22:41:27.817Z,3.30
2023-04-27T22:43:55.913Z,3.30
2023-04-27T22:46:24.073Z,3.30
2023-04-27T22:48:53.087Z,3.20
2023-04-27T22:51:23.889Z,3.20
2023-04-27T22:53:51.896Z,3.20
2023-04-27T22:56:20.577Z,3.20
2023-04-27T22:58:48.562Z,3.30
2023-04-27T23:01:16.932Z,3.20
2023-04-27T23:03:45.253Z,3.20
2023-04-27T23:06:16.313Z,3.10
2023-04-27T23:08:47.148Z,3.10
2023-04-27T23:11:15.536Z,3.00
2023-04-27T23:13:43.996Z,3.00
2023-04-27T23:16:12.116Z,3.00
2023-04-27T23:18:40.141Z,2.90
2023-04-27T23:21:08.110Z,3.00
2023-04-27T23:23:36.199Z,2.90
2023-04-27T23:26:12.274Z,2.80
2023-04-27T23:28:40.904Z,2.80
2023-04-27T23:31:09.278Z,2.70
2023-04-27T23:33:37.361Z,2.60
2023-04-27T23:36:05.950Z,2.50
2023-04-27T23:38:33.951Z,2.50
2023-04-27T23:41:01.865Z,2.50
2023-04-27T23:43:31.662Z,2.50
2023-04-27T23:45:59.743Z,2.40
2023-04-27T23:48:27.729Z,2.30
2023-04-27T23:51:00.811Z,2.30
2023-04-27T23:53:29.089Z,2.30
2023-04-27T23:55:58.341Z,2.30
2023-04-27T23:58:26.738Z,2.30
